Time;durP1;ratioP1;P1;durP2;ratioP2;P2;SDS_P1;SDS_P2;PMS_P1;PMS_P2;Temp;Humidity;BMP_temperature;BMP_pressure;BME280_temperature;BME280_humidity;BME280_pressure;Samples;Min_cycle;Max_cycle;Signal;HPM_P1;HPM_P2
2023/03/04 00:01:33;;;;;;;29.63;14.68;;;-2.50;99.90;;;;;;5016285;28;20025;-57
2023/03/04 00:03:58;;;;;;;21.85;13.98;;;-2.60;99.90;;;;;;4996320;28;20547;-58
2023/03/04 00:06:24;;;;;;;25.08;13.63;;;-2.60;99.90;;;;;;5011535;28;20037;-56
2023/03/04 00:08:50;;;;;;;28.92;15.15;;;-2.60;99.90;;;;;;5006925;28;20088;-57
2023/03/04 00:11:15;;;;;;;27.05;15.48;;;-2.60;99.90;;;;;;5002864;28;20517;-57
2023/03/04 00:13:41;;;;;;;29.17;14.93;;;-2.60;99.90;;;;;;5017636;28;20536;-56
2023/03/04 00:16:07;;;;;;;22.17;14.80;;;-2.60;99.90;;;;;;5002539;28;20038;-57
2023/03/04 00:18:32;;;;;;;27.70;15.57;;;-2.60;99.90;;;;;;5018071;28;20465;-56
2023/03/04 00:20:58;;;;;;;23.90;15.07;;;-2.60;99.90;;;;;;5004862;28;20026;-57
2023/03/04 00:23:24;;;;;;;28.67;16.70;;;-2.60;99.90;;;;;;5004571;28;20045;-57
2023/03/04 00:25:49;;;;;;;31.58;14.48;;;-2.70;99.90;;;;;;5013837;28;20033;-57
2023/03/04 00:28:15;;;;;;;28.58;14.45;;;-2.60;99.90;;;;;;4996937;28;20069;-57
2023/03/04 00:30:41;;;;;;;25.30;14.70;;;-2.70;99.90;;;;;;5012673;28;20476;-57
2023/03/04 00:33:06;;;;;;;27.77;14.98;;;-2.70;99.90;;;;;;5002863;28;20510;-56
2023/03/04 00:35:32;;;;;;;24.08;13.43;;;-2.70;99.90;;;;;;5007526;28;20030;-57
2023/03/04 00:37:58;;;;;;;24.65;14.40;;;-2.80;99.90;;;;;;5011492;28;20035;-57
2023/03/04 00:40:23;;;;;;;27.33;15.48;;;-2.80;99.90;;;;;;4996419;28;20125;-58
2023/03/04 00:42:49;;;;;;;30.83;15.57;;;-2.90;99.90;;;;;;5015159;28;20522;-57
2023/03/04 00:45:15;;;;;;;29.10;14.93;;;-2.90;99.90;;;;;;5004580;28;20037;-57
2023/03/04 00:47:40;;;;;;;25.08;15.30;;;-2.90;99.90;;;;;;5009137;28;20034;-57
2023/03/04 00:50:06;;;;;;;24.02;13.57;;;-3.00;99.90;;;;;;5010954;28;20027;-58
2023/03/04 00:52:32;;;;;;;30.70;14.15;;;-3.00;99.90;;;;;;4997843;28;20018;-58
2023/03/04 00:54:57;;;;;;;23.45;14.07;;;-3.00;99.90;;;;;;5019069;28;20116;-57
2023/03/04 00:57:23;;;;;;;25.95;14.40;;;-3.00;99.90;;;;;;4998421;28;20087;-57
2023/03/04 00:59:49;;;;;;;21.65;15.02;;;-3.00;99.90;;;;;;5007541;28;20022;-57
2023/03/04 01:02:14;;;;;;;24.80;14.70;;;-3.00;99.90;;;;;;5007213;28;20046;-57
2023/03/04 01:04:40;;;;;;;26.10;13.80;;;-3.00;99.90;;;;;;4998541;28;20022;-58
2023/03/04 01:07:06;;;;;;;25.25;15.05;;;-3.00;99.90;;;;;;5016802;28;20020;-57
2023/03/04 01:09:32;;;;;;;19.05;13.00;;;-3.10;99.90;;;;;;4999201;28;20026;-56
2023/03/04 01:11:58;;;;;;;27.02;15.68;;;-3.10;99.90;;;;;;5006066;28;20096;-57
2023/03/04 01:14:24;;;;;;;29.58;16.13;;;-3.10;99.90;;;;;;5006394;28;20049;-56
2023/03/04 01:16:50;;;;;;;23.17;14.80;;;-3.20;99.90;;;;;;4998779;28;20026;-55
2023/03/04 01:19:16;;;;;;;30.38;14.70;;;-3.20;99.90;;;;;;5018295;28;20447;-57
2023/03/04 01:21:41;;;;;;;25.38;13.32;;;-3.30;99.90;;;;;;4997183;28;20030;-56
2023/03/04 01:24:07;;;;;;;27.90;14.60;;;-3.30;99.90;;;;;;5013140;28;20103;-57
2023/03/04 01:26:33;;;;;;;34.45;16.20;;;-3.30;99.90;;;;;;5009430;28;20050;-57
2023/03/04 01:28:58;;;;;;;31.60;15.85;;;-3.30;99.90;;;;;;4999888;28;20026;-56
2023/03/04 01:31:24;;;;;;;30.40;15.75;;;-3.30;99.90;;;;;;5016167;28;20025;-56
2023/03/04 01:33:50;;;;;;;27.98;16.45;;;-3.30;99.90;;;;;;4998287;28;20537;-57
2023/03/04 01:36:15;;;;;;;30.33;15.32;;;-3.30;99.90;;;;;;5010352;28;20046;-56
2023/03/04 01:38:41;;;;;;;25.75;14.90;;;-3.30;99.90;;;;;;5005981;28;20027;-56
2023/03/04 01:41:07;;;;;;;31.63;16.05;;;-3.30;99.90;;;;;;5000918;28;20099;-57
2023/03/04 01:43:35;;;;;;;27.67;15.23;;;-3.20;99.90;;;;;;5014652;28;20056;-57
2023/03/04 01:46:01;;;;;;;34.83;16.65;;;-3.20;99.90;;;;;;4996740;28;20096;-56
2023/03/04 01:48:32;;;;;;;34.58;16.45;;;-3.10;99.90;;;;;;5012446;28;20026;-55
2023/03/04 01:51:01;;;;;;;31.75;16.10;;;-3.10;99.90;;;;;;5004355;28;20402;-57
2023/03/04 01:53:28;;;;;;;24.65;14.27;;;-3.00;99.90;;;;;;5003121;28;20030;-58
2023/03/04 01:55:57;;;;;;;25.52;15.43;;;-3.00;99.90;;;;;;5012577;28;20038;-56
2023/03/04 01:58:27;;;;;;;30.42;15.38;;;-2.90;99.90;;;;;;5005419;28;20030;-57
2023/03/04 02:00:53;;;;;;;33.85;16.45;;;-2.80;99.90;;;;;;5007597;28;20294;-57
2023/03/04 02:03:19;;;;;;;25.52;14.27;;;-2.70;99.90;;;;;;5009989;28;20033;-57
2023/03/04 02:05:48;;;;;;;29.02;15.98;;;-2.70;99.90;;;;;;5002059;28;20851;-57
2023/03/04 02:08:16;;;;;;;25.05;14.88;;;-2.60;99.90;;;;;;5003069;28;20084;-59
2023/03/04 02:10:43;;;;;;;18.75;13.15;;;-2.50;99.90;;;;;;5012908;28;20028;-57
2023/03/04 02:13:10;;;;;;;21.65;13.02;;;-2.50;99.90;;;;;;4998166;28;20014;-57
2023/03/04 02:15:35;;;;;;;20.52;13.30;;;-2.40;99.90;;;;;;5010036;28;20029;-57
2023/03/04 02:18:03;;;;;;;19.48;12.40;;;-2.30;99.90;;;;;;5001793;28;20033;-57
2023/03/04 02:20:44;;;;;;;17.92;12.05;;;-2.20;99.90;;;;;;5002840;28;20033;-59
2023/03/04 02:23:36;;;;;;;21.15;12.63;;;-2.10;99.90;;;;;;5009496;28;20033;-59
2023/03/04 02:26:25;;;;;;;16.52;12.02;;;-2.00;99.90;;;;;;4985892;28;20022;-57
2023/03/04 02:28:53;;;;;;;17.35;10.98;;;-2.00;99.90;;;;;;5012253;28;20084;-56
2023/03/04 02:31:41;;;;;;;20.30;11.75;;;-1.90;99.90;;;;;;4996152;28;20069;-57
2023/03/04 02:34:13;;;;;;;18.70;12.35;;;-1.90;99.90;;;;;;4995323;28;20719;-57
2023/03/04 02:36:40;;;;;;;17.33;11.23;;;-1.80;99.90;;;;;;4992563;28;20041;-57
2023/03/04 02:39:20;;;;;;;18.17;12.35;;;-1.80;99.90;;;;;;5007896;28;20066;-56
2023/03/04 02:41:47;;;;;;;20.23;12.88;;;-1.70;99.90;;;;;;5005700;28;20039;-57
2023/03/04 02:44:27;;;;;;;17.05;11.68;;;-1.70;99.90;;;;;;5001711;28;20030;-57
2023/03/04 02:46:54;;;;;;;19.85;11.15;;;-1.70;99.90;;;;;;5008113;28;20030;-58
2023/03/04 02:49:22;;;;;;;17.38;10.95;;;-1.60;99.90;;;;;;4992206;28;20770;-58
2023/03/04 02:52:21;;;;;;;18.10;11.48;;;-1.60;99.90;;;;;;5018714;28;20034;-57
2023/03/04 02:54:47;;;;;;;18.70;12.32;;;-1.60;99.90;;;;;;4999622;28;20033;-58
2023/03/04 02:57:13;;;;;;;15.63;11.20;;;-1.60;99.90;;;;;;5014070;28;20044;-56
2023/03/04 02:59:40;;;;;;;13.40;10.32;;;-1.60;99.90;;;;;;5014552;28;20037;-55
2023/03/04 03:02:07;;;;;;;16.35;11.63;;;-1.50;99.90;;;;;;5014358;28;20026;-57
2023/03/04 03:04:33;;;;;;;16.15;12.38;;;-1.50;99.90;;;;;;5018108;28;20018;-58
2023/03/04 03:06:58;;;;;;;20.45;11.48;;;-1.40;99.90;;;;;;5014148;28;20075;-55
2023/03/04 03:09:24;;;;;;;15.00;10.98;;;-1.40;99.90;;;;;;5013856;28;20753;-58
2023/03/04 03:11:50;;;;;;;16.70;10.45;;;-1.40;99.90;;;;;;5018895;28;20030;-56
2023/03/04 03:14:15;;;;;;;16.63;10.20;;;-1.40;99.90;;;;;;5015056;28;20502;-57
2023/03/04 03:16:42;;;;;;;22.45;13.70;;;-1.40;99.90;;;;;;5014770;28;20057;-55
2023/03/04 03:19:07;;;;;;;19.95;13.20;;;-1.30;99.90;;;;;;5012073;28;20025;-57
2023/03/04 03:21:33;;;;;;;14.32;10.45;;;-1.30;99.90;;;;;;5015578;28;20109;-56
2023/03/04 03:23:58;;;;;;;18.55;11.60;;;-1.30;99.90;;;;;;5015751;28;20498;-56
2023/03/04 03:26:24;;;;;;;17.95;11.95;;;-1.30;99.90;;;;;;5009878;28;20041;-55
2023/03/04 03:28:50;;;;;;;15.93;11.20;;;-1.30;99.90;;;;;;5013654;28;20034;-58
2023/03/04 03:31:15;;;;;;;20.60;11.95;;;-1.30;99.90;;;;;;5015339;28;20040;-57
2023/03/04 03:33:41;;;;;;;20.13;12.75;;;-1.30;99.90;;;;;;5011272;28;20390;-57
2023/03/04 03:36:07;;;;;;;17.98;12.13;;;-1.40;99.90;;;;;;5012029;28;20785;-58
2023/03/04 03:38:33;;;;;;;20.65;13.00;;;-1.40;99.90;;;;;;5017587;28;20564;-55
2023/03/04 03:40:59;;;;;;;21.15;12.98;;;-1.50;99.90;;;;;;5013582;28;20025;-58
2023/03/04 03:43:24;;;;;;;19.85;13.43;;;-1.50;99.90;;;;;;5016163;28;20025;-56
2023/03/04 03:45:50;;;;;;;25.73;15.73;;;-1.50;99.90;;;;;;5013080;28;20101;-56
2023/03/04 03:48:16;;;;;;;20.40;13.48;;;-1.40;99.90;;;;;;5016887;28;20026;-57
2023/03/04 03:50:42;;;;;;;17.05;12.20;;;-1.40;99.90;;;;;;5013019;28;20588;-55
2023/03/04 03:53:08;;;;;;;22.25;13.63;;;-1.40;99.90;;;;;;5016693;28;20080;-57
2023/03/04 03:55:33;;;;;;;22.48;14.40;;;-1.40;99.90;;;;;;5012192;28;20029;-57
2023/03/04 03:57:59;;;;;;;18.25;13.07;;;-1.30;99.90;;;;;;5012684;28;20010;-58
2023/03/04 04:00:24;;;;;;;22.50;12.82;;;-1.30;99.90;;;;;;5012858;28;20152;-58
2023/03/04 04:02:52;;;;;;;21.30;12.52;;;-1.30;99.90;;;;;;5015695;28;20095;-58
2023/03/04 04:05:18;;;;;;;18.42;12.13;;;-1.30;99.90;;;;;;5016929;28;20038;-57
2023/03/04 04:07:43;;;;;;;23.52;12.75;;;-1.20;99.90;;;;;;5018566;28;20386;-57
2023/03/04 04:10:10;;;;;;;21.95;13.70;;;-1.10;99.90;;;;;;5018231;28;20100;-59
2023/03/04 04:12:35;;;;;;;22.63;13.55;;;-1.10;99.90;;;;;;5015749;28;20029;-59
2023/03/04 04:15:01;;;;;;;24.13;12.85;;;-1.10;99.90;;;;;;5019339;28;20037;-59
2023/03/04 04:17:27;;;;;;;20.88;13.43;;;-1.00;99.90;;;;;;5021517;28;20586;-58
2023/03/04 04:19:52;;;;;;;24.90;14.23;;;-1.00;99.90;;;;;;5018546;28;20026;-57
2023/03/04 04:22:19;;;;;;;18.90;12.65;;;-1.00;99.90;;;;;;5016759;28;20025;-58
2023/03/04 04:24:45;;;;;;;24.52;12.80;;;-1.10;99.90;;;;;;5016566;28;20125;-57
2023/03/04 04:27:11;;;;;;;22.25;12.20;;;-1.00;99.90;;;;;;5016574;28;20040;-60
2023/03/04 04:29:37;;;;;;;26.25;13.68;;;-1.00;99.90;;;;;;5019229;28;20034;-56
2023/03/04 04:32:03;;;;;;;25.63;13.57;;;-1.00;99.90;;;;;;5022318;28;20029;-58
2023/03/04 04:34:29;;;;;;;18.73;12.45;;;-0.90;99.90;;;;;;5020973;28;20033;-56
2023/03/04 04:36:55;;;;;;;20.63;11.68;;;-0.90;99.90;;;;;;5017251;28;20037;-57
2023/03/04 04:39:21;;;;;;;21.73;12.52;;;-0.90;99.90;;;;;;5017550;28;20033;-57
2023/03/04 04:41:47;;;;;;;20.95;12.05;;;-0.80;99.90;;;;;;5016656;28;20406;-57
2023/03/04 04:44:13;;;;;;;17.73;12.40;;;-0.70;99.90;;;;;;5016805;28;20081;-58
2023/03/04 04:46:40;;;;;;;18.38;11.75;;;-0.70;99.90;;;;;;5016331;28;20036;-57
2023/03/04 04:49:07;;;;;;;18.80;11.95;;;-0.70;99.90;;;;;;5014390;28;20029;-57
2023/03/04 04:51:34;;;;;;;25.00;11.93;;;-0.70;99.90;;;;;;5017721;28;20030;-57
2023/03/04 04:54:01;;;;;;;20.83;12.23;;;-0.70;99.90;;;;;;5018683;28;20030;-57
2023/03/04 04:56:27;;;;;;;24.13;12.85;;;-0.70;99.90;;;;;;5016543;28;20045;-56
2023/03/04 04:58:57;;;;;;;17.38;12.48;;;-0.80;99.90;;;;;;5014034;28;20029;-57
2023/03/04 05:01:24;;;;;;;17.50;12.43;;;-0.80;99.90;;;;;;5012585;28;20025;-58
2023/03/04 05:03:52;;;;;;;19.63;12.05;;;-0.80;99.90;;;;;;5013293;28;20526;-56
2023/03/04 05:06:20;;;;;;;25.15;12.90;;;-0.80;99.90;;;;;;5011401;28;20797;-57
2023/03/04 05:08:46;;;;;;;21.15;13.07;;;-0.90;99.90;;;;;;5013001;28;20422;-56
2023/03/04 05:11:11;;;;;;;23.20;13.35;;;-0.90;99.90;;;;;;5015865;28;20490;-57
2023/03/04 05:13:37;;;;;;;19.85;12.70;;;-0.90;99.90;;;;;;5001892;28;20025;-57
2023/03/04 05:16:04;;;;;;;23.52;13.20;;;-1.00;99.90;;;;;;5014926;28;20041;-56
2023/03/04 05:18:30;;;;;;;21.05;13.02;;;-1.00;99.90;;;;;;5015181;28;20490;-60
2023/03/04 05:20:58;;;;;;;24.60;13.95;;;-1.00;99.90;;;;;;5017827;28;20404;-59
2023/03/04 05:23:25;;;;;;;22.45;13.57;;;-1.00;99.90;;;;;;5018490;28;20030;-59
2023/03/04 05:25:51;;;;;;;22.27;13.68;;;-1.00;99.90;;;;;;5018710;28;20394;-61
2023/03/04 05:28:17;;;;;;;20.10;12.93;;;-1.00;99.90;;;;;;5017032;28;20037;-56
2023/03/04 05:30:44;;;;;;;20.10;13.32;;;-0.90;99.90;;;;;;5014786;28;20033;-57
2023/03/04 05:33:11;;;;;;;24.30;14.45;;;-0.90;99.90;;;;;;5013657;28;20021;-57
2023/03/04 05:35:38;;;;;;;21.05;12.70;;;-0.90;99.90;;;;;;5011411;28;20034;-58
2023/03/04 05:38:05;;;;;;;20.63;13.77;;;-0.90;99.90;;;;;;5014269;28;20387;-58
2023/03/04 05:40:31;;;;;;;20.65;12.50;;;-0.80;99.90;;;;;;5012981;28;20018;-57
2023/03/04 05:42:57;;;;;;;19.45;12.50;;;-0.80;99.90;;;;;;5014813;28;20105;-57
2023/03/04 05:45:24;;;;;;;24.75;12.43;;;-0.80;99.90;;;;;;5015044;28;20161;-56
2023/03/04 05:47:49;;;;;;;20.60;12.63;;;-0.70;99.90;;;;;;5018115;28;20080;-60
2023/03/04 05:50:15;;;;;;;21.75;13.60;;;-0.70;99.90;;;;;;5014775;28;20473;-59
2023/03/04 05:52:41;;;;;;;18.48;12.15;;;-0.60;99.90;;;;;;5018243;28;20035;-60
2023/03/04 05:55:07;;;;;;;25.85;13.50;;;-0.60;99.90;;;;;;5016607;28;20111;-60
2023/03/04 05:57:32;;;;;;;21.42;13.10;;;-0.60;99.90;;;;;;5015772;28;20033;-58
2023/03/04 05:59:58;;;;;;;19.67;12.20;;;-0.60;99.90;;;;;;5015164;28;20021;-57
2023/03/04 06:02:24;;;;;;;18.85;12.90;;;-0.60;99.90;;;;;;5013854;28;20033;-58
2023/03/04 06:04:49;;;;;;;22.40;13.48;;;-0.60;99.90;;;;;;5016985;28;20033;-58
2023/03/04 06:07:15;;;;;;;21.35;11.55;;;-0.60;99.90;;;;;;5016646;28;20043;-57
2023/03/04 06:09:43;;;;;;;21.67;11.65;;;-0.60;99.90;;;;;;5015441;28;20486;-57
2023/03/04 06:12:10;;;;;;;20.95;12.63;;;-0.60;99.90;;;;;;5013517;28;20037;-58
2023/03/04 06:14:36;;;;;;;23.23;13.82;;;-0.60;99.90;;;;;;5015864;28;20640;-58
2023/03/04 06:17:01;;;;;;;23.42;13.27;;;-0.60;99.90;;;;;;5015083;28;20044;-57
2023/03/04 06:19:27;;;;;;;25.10;13.75;;;-0.60;99.90;;;;;;5016123;28;20030;-57
2023/03/04 06:21:53;;;;;;;21.60;13.13;;;-0.60;99.90;;;;;;5014275;28;20616;-58
2023/03/04 06:24:18;;;;;;;24.75;13.75;;;-0.60;99.90;;;;;;5015267;28;20124;-57
2023/03/04 06:26:44;;;;;;;19.42;12.40;;;-0.60;99.90;;;;;;5013450;28;20030;-56
2023/03/04 06:29:10;;;;;;;23.25;13.90;;;-0.60;99.90;;;;;;5013686;28;20073;-57
2023/03/04 06:31:36;;;;;;;24.42;13.95;;;-0.60;99.90;;;;;;5015727;28;20121;-59
2023/03/04 06:34:01;;;;;;;20.88;12.98;;;-0.60;99.90;;;;;;5012920;28;20068;-57
2023/03/04 06:36:27;;;;;;;26.38;14.52;;;-0.60;99.90;;;;;;5013815;28;20111;-57
2023/03/04 06:38:53;;;;;;;22.50;13.82;;;-0.60;99.90;;;;;;5014096;28;20032;-57
2023/03/04 06:41:18;;;;;;;24.15;13.60;;;-0.60;99.90;;;;;;5015722;28;20029;-58
2023/03/04 06:43:44;;;;;;;25.10;12.85;;;-0.60;99.90;;;;;;5012227;28;20040;-57
2023/03/04 06:46:10;;;;;;;25.52;13.85;;;-0.60;99.90;;;;;;5017729;28;20159;-57
2023/03/04 06:48:36;;;;;;;23.35;13.73;;;-0.50;99.90;;;;;;5016342;28;20111;-57
2023/03/04 06:51:09;;;;;;;25.88;14.43;;;-0.50;99.90;;;;;;5014962;28;20022;-57
2023/03/04 06:53:34;;;;;;;21.50;13.55;;;-0.50;99.90;;;;;;5016854;28;20422;-58
2023/03/04 06:56:00;;;;;;;23.85;14.07;;;-0.40;99.90;;;;;;5014891;28;20049;-57
2023/03/04 06:58:26;;;;;;;27.35;15.63;;;-0.40;99.90;;;;;;5013492;28;20048;-58
2023/03/04 07:00:51;;;;;;;22.83;14.25;;;-0.30;99.90;;;;;;4995459;28;20065;-57
2023/03/04 07:03:17;;;;;;;26.27;14.35;;;-0.30;99.90;;;;;;5011725;28;20895;-57
2023/03/04 07:05:43;;;;;;;28.73;15.95;;;-0.30;99.90;;;;;;5003941;28;20034;-59
2023/03/04 07:08:08;;;;;;;23.90;15.02;;;-0.20;99.90;;;;;;5000502;28;20088;-59
2023/03/04 07:10:34;;;;;;;27.85;13.98;;;-0.20;99.90;;;;;;5011966;28;20444;-59
2023/03/04 07:13:01;;;;;;;22.70;13.40;;;-0.10;99.90;;;;;;4997016;28;20030;-58
2023/03/04 07:15:27;;;;;;;24.77;14.95;;;-0.10;99.90;;;;;;5009145;28;20081;-57
2023/03/04 07:17:52;;;;;;;24.73;14.68;;;-0.10;99.90;;;;;;5004404;28;20038;-59
2023/03/04 07:20:18;;;;;;;24.08;15.15;;;0.00;99.90;;;;;;5002209;28;20029;-59
2023/03/04 07:22:44;;;;;;;24.13;14.13;;;0.10;99.90;;;;;;5011893;28;20498;-58
2023/03/04 07:25:10;;;;;;;20.50;14.98;;;0.20;99.90;;;;;;4994942;28;20714;-57
2023/03/04 07:27:37;;;;;;;27.63;15.48;;;0.30;99.90;;;;;;5013041;28;20136;-59
2023/03/04 07:30:04;;;;;;;26.15;14.68;;;0.40;99.90;;;;;;5003409;28;20026;-60
2023/03/04 07:32:30;;;;;;;21.63;13.23;;;0.50;99.90;;;;;;5006339;28;20037;-58
2023/03/04 07:34:55;;;;;;;22.88;12.80;;;0.60;99.90;;;;;;5015894;28;20287;-58
2023/03/04 07:37:21;;;;;;;26.23;16.50;;;0.70;99.90;;;;;;4998287;28;20030;-60
2023/03/04 07:39:47;;;;;;;21.33;14.13;;;0.80;99.90;;;;;;5019044;28;20076;-59
2023/03/04 07:42:12;;;;;;;25.35;14.63;;;0.90;99.90;;;;;;5008509;28;20081;-58
2023/03/04 07:44:38;;;;;;;27.20;15.43;;;1.00;99.90;;;;;;5010845;28;20055;-57
2023/03/04 07:47:04;;;;;;;24.48;13.02;;;1.10;99.90;;;;;;5013145;28;20037;-58
2023/03/04 07:49:29;;;;;;;21.40;14.40;;;1.20;99.90;;;;;;5000633;28;20026;-58
2023/03/04 07:51:55;;;;;;;23.15;13.23;;;1.20;99.90;;;;;;5020690;28;20526;-58
2023/03/04 07:54:20;;;;;;;21.02;13.40;;;1.30;99.90;;;;;;4998992;28;20038;-60
2023/03/04 07:56:46;;;;;;;23.75;12.93;;;1.30;99.90;;;;;;5007482;28;20061;-58
2023/03/04 07:59:12;;;;;;;18.88;12.82;;;1.40;99.90;;;;;;5011125;28;20030;-57
2023/03/04 08:01:37;;;;;;;25.90;14.50;;;1.40;99.90;;;;;;4998186;28;20053;-58
2023/03/04 08:04:05;;;;;;;18.75;13.77;;;1.50;99.90;;;;;;5017579;28;20030;-57
2023/03/04 08:06:31;;;;;;;20.83;14.48;;;1.60;99.90;;;;;;5001058;28;20078;-60
2023/03/04 08:08:59;;;;;;;21.58;13.35;;;1.60;99.90;;;;;;5011419;28;20977;-58
2023/03/04 08:11:25;;;;;;;22.08;13.50;;;1.60;99.90;;;;;;5010592;28;20037;-60
2023/03/04 08:13:53;;;;;;;22.38;13.05;;;1.70;99.90;;;;;;5004507;28;20691;-60
2023/03/04 08:16:19;;;;;;;21.40;13.35;;;1.60;99.90;;;;;;5017435;28;20168;-59
2023/03/04 08:18:48;;;;;;;22.98;13.40;;;1.60;99.90;;;;;;4997718;28;20030;-59
2023/03/04 08:21:18;;;;;;;22.40;13.93;;;1.70;99.90;;;;;;5013816;28;20034;-57
2023/03/04 08:23:44;;;;;;;21.20;14.38;;;1.70;99.90;;;;;;5004252;28;20042;-59
2023/03/04 08:26:19;;;;;;;22.95;14.27;;;1.70;99.90;;;;;;5008012;28;20116;-58
2023/03/04 08:28:45;;;;;;;24.00;14.77;;;1.70;99.90;;;;;;5013951;28;20045;-60
2023/03/04 08:31:12;;;;;;;20.67;14.15;;;1.80;99.90;;;;;;4998812;28;20018;-59
2023/03/04 08:33:38;;;;;;;22.30;14.20;;;1.80;99.90;;;;;;5015790;28;20119;-58
2023/03/04 08:36:04;;;;;;;16.95;12.77;;;1.80;99.90;;;;;;5006214;28;20065;-59
2023/03/04 08:38:30;;;;;;;20.73;12.45;;;1.90;99.90;;;;;;5004728;28;20034;-56
2023/03/04 08:40:57;;;;;;;18.25;13.57;;;1.80;99.90;;;;;;5014212;28;20033;-58
2023/03/04 08:43:24;;;;;;;21.20;13.73;;;1.90;99.90;;;;;;4998874;28;20058;-58
2023/03/04 08:45:50;;;;;;;21.05;12.35;;;1.90;99.90;;;;;;5015365;28;20116;-59
2023/03/04 08:48:18;;;;;;;20.45;13.38;;;1.90;99.90;;;;;;5004857;28;20034;-57
2023/03/04 08:50:44;;;;;;;18.08;13.85;;;2.00;99.90;;;;;;5004345;28;20065;-57
2023/03/04 08:53:11;;;;;;;17.00;12.88;;;2.00;99.90;;;;;;5007561;28;20113;-58
2023/03/04 08:55:38;;;;;;;20.90;13.55;;;2.10;99.90;;;;;;4999553;28;20034;-58
2023/03/04 08:58:05;;;;;;;24.08;13.63;;;2.20;99.90;;;;;;5016382;28;20548;-58
2023/03/04 09:00:31;;;;;;;20.58;13.27;;;2.30;99.90;;;;;;5000463;28;20042;-58
2023/03/04 09:02:57;;;;;;;21.63;14.65;;;2.40;99.90;;;;;;5008735;28;20025;-56
2023/03/04 09:05:22;;;;;;;25.52;14.10;;;2.40;99.90;;;;;;5009726;28;20034;-58
2023/03/04 09:07:48;;;;;;;20.33;15.10;;;2.50;99.90;;;;;;4997274;28;20577;-60
2023/03/04 09:10:13;;;;;;;17.63;12.75;;;2.60;99.90;;;;;;5017635;28;20060;-60
2023/03/04 09:12:39;;;;;;;17.08;12.60;;;2.70;99.90;;;;;;5001470;28;20513;-59
2023/03/04 09:15:06;;;;;;;17.17;13.32;;;2.80;99.90;;;;;;5010380;28;20121;-58
2023/03/04 09:17:32;;;;;;;18.75;13.10;;;2.90;99.90;;;;;;5007635;28;20026;-58
2023/03/04 09:19:58;;;;;;;20.73;13.75;;;2.90;99.90;;;;;;5000788;28;20430;-58
2023/03/04 09:22:24;;;;;;;25.52;16.88;;;3.00;99.90;;;;;;5016184;28;20033;-58
2023/03/04 09:24:49;;;;;;;17.83;12.20;;;3.00;99.90;;;;;;4994337;28;20026;-58
2023/03/04 09:27:15;;;;;;;19.20;12.18;;;3.00;99.90;;;;;;5006156;28;20833;-58
2023/03/04 09:29:42;;;;;;;20.38;12.65;;;3.00;99.90;;;;;;5001109;28;20586;-60
2023/03/04 09:32:07;;;;;;;19.85;13.00;;;3.10;99.90;;;;;;5003452;28;20026;-58
2023/03/04 09:34:33;;;;;;;19.05;11.93;;;3.00;99.90;;;;;;5014618;28;20048;-59
2023/03/04 09:36:59;;;;;;;16.13;11.50;;;3.00;99.90;;;;;;4997063;28;20026;-57
2023/03/04 09:39:25;;;;;;;21.35;12.30;;;3.00;99.90;;;;;;5009460;28;20570;-60
2023/03/04 09:41:56;;;;;;;29.27;18.13;;;3.10;99.90;;;;;;5000719;28;20498;-58
2023/03/04 09:44:38;;;;;;;13.95;10.75;;;3.10;99.90;;;;;;5007834;28;20486;-59
2023/03/04 09:47:12;;;;;;;15.02;10.40;;;3.20;99.90;;;;;;5009796;28;20070;-58
2023/03/04 09:49:41;;;;;;;14.55;10.68;;;3.30;99.90;;;;;;4997695;28;20027;-58
2023/03/04 09:52:27;;;;;;;15.05;10.02;;;3.40;99.90;;;;;;5015650;28;20107;-58
2023/03/04 09:55:11;;;;;;;19.48;10.80;;;3.40;99.90;;;;;;5015284;28;20034;-58
2023/03/04 09:58:03;;;;;;;13.98;9.75;;;3.30;99.90;;;;;;5012410;28;20098;-59
2023/03/04 10:00:42;;;;;;;17.13;10.50;;;3.20;99.90;;;;;;5016303;28;20113;-58
2023/03/04 10:03:11;;;;;;;14.55;9.73;;;3.30;99.90;;;;;;5015751;28;20105;-59
2023/03/04 10:06:03;;;;;;;15.43;9.57;;;3.40;99.90;;;;;;5015389;28;20088;-59
2023/03/04 10:08:53;;;;;;;15.38;8.98;;;3.60;99.90;;;;;;5018078;28;20121;-58
2023/03/04 10:11:49;;;;;;;18.30;8.52;;;3.80;99.90;;;;;;5015466;28;20038;-59
2023/03/04 10:14:29;;;;;;;14.18;9.27;;;4.00;99.90;;;;;;5004627;28;20046;-58
2023/03/04 10:17:18;;;;;;;15.27;8.20;;;4.10;99.90;;;;;;5017204;28;20148;-59
2023/03/04 10:20:45;;;;;;;14.02;7.10;;;4.10;99.50;;;;;;5018349;28;20026;-59
2023/03/04 10:23:18;;;;;;;16.10;9.25;;;4.10;99.00;;;;;;4925214;29;20124;-60
2023/03/04 10:25:52;;;;;;;14.98;8.52;;;4.10;99.10;;;;;;5003780;28;20038;-59
2023/03/04 10:28:22;;;;;;;13.18;8.48;;;4.10;98.90;;;;;;5016364;28;20038;-57
2023/03/04 10:31:11;;;;;;;13.63;8.00;;;4.20;98.70;;;;;;5015237;28;20033;-58
2023/03/04 10:33:38;;;;;;;22.38;9.88;;;4.10;98.20;;;;;;5014727;28;20037;-59
2023/03/04 10:36:31;;;;;;;17.42;9.50;;;4.20;99.20;;;;;;5015178;28;20062;-58
2023/03/04 10:39:10;;;;;;;14.32;7.85;;;4.20;98.00;;;;;;5016752;28;20022;-58
2023/03/04 10:41:41;;;;;;;14.70;9.23;;;4.10;98.20;;;;;;5012237;28;20084;-58
2023/03/04 10:44:13;;;;;;;16.23;9.82;;;4.10;98.30;;;;;;5014496;28;20022;-58
2023/03/04 10:46:46;;;;;;;22.30;10.13;;;4.10;98.20;;;;;;5015517;28;20100;-59
2023/03/04 10:49:17;;;;;;;12.23;8.35;;;4.00;98.20;;;;;;5015476;28;20116;-60
2023/03/04 10:51:53;;;;;;;12.77;8.48;;;3.90;98.40;;;;;;5016228;28;20139;-59
2023/03/04 10:54:25;;;;;;;11.65;9.02;;;3.90;99.40;;;;;;5017035;28;20095;-59
2023/03/04 10:56:56;;;;;;;20.25;9.57;;;3.90;99.70;;;;;;5013268;28;20049;-61
2023/03/04 10:59:43;;;;;;;16.88;8.57;;;3.90;99.90;;;;;;5014132;28;20033;-58
2023/03/04 11:02:23;;;;;;;20.88;9.88;;;4.00;99.80;;;;;;5015290;28;20571;-58
2023/03/04 11:05:03;;;;;;;18.77;8.98;;;4.00;99.90;;;;;;5014350;28;20053;-59
2023/03/04 11:07:29;;;;;;;16.97;9.30;;;4.10;99.90;;;;;;5010503;28;20443;-60
2023/03/04 11:10:05;;;;;;;14.57;8.07;;;4.10;99.90;;;;;;5016348;28;20355;-59
2023/03/04 11:12:33;;;;;;;18.02;9.88;;;4.20;99.90;;;;;;5017705;28;20038;-58
2023/03/04 11:15:00;;;;;;;13.68;8.90;;;4.30;99.90;;;;;;5017659;28;20120;-58
2023/03/04 11:17:42;;;;;;;20.75;8.57;;;4.30;99.90;;;;;;5018172;28;20038;-58
2023/03/04 11:20:37;;;;;;;16.63;9.13;;;4.30;99.50;;;;;;5018645;28;20022;-59
2023/03/04 11:23:09;;;;;;;22.92;10.25;;;4.50;99.70;;;;;;5018903;28;20025;-57
2023/03/04 11:25:41;;;;;;;15.88;9.15;;;4.60;99.30;;;;;;5016892;28;20517;-58
2023/03/04 11:28:54;;;;;;;20.65;10.07;;;4.60;99.60;;;;;;5019903;28;20545;-58
2023/03/04 11:31:26;;;;;;;22.92;9.88;;;4.70;99.60;;;;;;5010980;28;20132;-59
2023/03/04 11:34:01;;;;;;;18.17;9.60;;;4.90;99.60;;;;;;5020009;28;20026;-58
2023/03/04 11:36:55;;;;;;;19.42;8.57;;;4.90;98.80;;;;;;5019303;28;20030;-57
2023/03/04 11:39:53;;;;;;;21.08;9.05;;;4.90;98.70;;;;;;5015890;28;20144;-58
2023/03/04 11:42:21;;;;;;;12.40;7.93;;;5.00;98.50;;;;;;5016908;28;20120;-57
2023/03/04 11:44:47;;;;;;;13.82;9.18;;;5.10;98.70;;;;;;5019517;28;20022;-59
2023/03/04 11:47:13;;;;;;;14.98;8.20;;;5.10;98.20;;;;;;5017880;28;20397;-59
2023/03/04 11:50:22;;;;;;;14.27;7.93;;;5.10;98.10;;;;;;5018633;28;20053;-59
2023/03/04 11:53:00;;;;;;;30.05;12.18;;;5.20;97.50;;;;;;5019439;28;20369;-59
2023/03/04 11:55:37;;;;;;;12.50;8.18;;;5.20;98.00;;;;;;5019730;28;20036;-58
2023/03/04 11:58:15;;;;;;;18.08;8.35;;;5.20;97.60;;;;;;5019103;28;20037;-58
2023/03/04 12:00:57;;;;;;;14.85;7.10;;;5.10;97.70;;;;;;5019997;28;20018;-57
2023/03/04 12:03:50;;;;;;;19.10;9.60;;;5.00;98.00;;;;;;5018968;28;20033;-58
2023/03/04 12:06:37;;;;;;;29.05;7.75;;;5.10;98.30;;;;;;5017105;28;20117;-59
2023/03/04 12:09:45;;;;;;;18.45;6.97;;;5.10;98.40;;;;;;5017762;28;20136;-57
2023/03/04 12:12:28;;;;;;;14.65;8.48;;;5.00;97.90;;;;;;4988802;28;20034;-56
2023/03/04 12:15:19;;;;;;;18.15;7.40;;;4.90;97.90;;;;;;5017218;28;20379;-59
2023/03/04 12:17:48;;;;;;;14.00;9.13;;;4.90;98.60;;;;;;5014196;28;20029;-57
2023/03/04 12:20:29;;;;;;;16.67;8.63;;;4.90;98.20;;;;;;5013039;28;20607;-57
2023/03/04 12:23:00;;;;;;;13.95;6.68;;;4.80;98.90;;;;;;5015963;28;20395;-58
2023/03/04 12:25:26;;;;;;;14.85;7.32;;;4.80;99.00;;;;;;5015278;28;20033;-58
2023/03/04 12:28:10;;;;;;;19.33;8.88;;;4.80;98.50;;;;;;5016579;28;20038;-58
2023/03/04 12:30:52;;;;;;;13.35;7.60;;;4.80;99.50;;;;;;5017594;28;20141;-58
2023/03/04 12:33:36;;;;;;;22.20;7.57;;;4.80;98.50;;;;;;5019640;28;20057;-58
2023/03/04 12:36:36;;;;;;;19.38;8.02;;;4.80;99.50;;;;;;5017260;28;20634;-58
2023/03/04 12:39:04;;;;;;;14.25;7.60;;;4.80;99.30;;;;;;5017586;28;20112;-57
2023/03/04 12:41:59;;;;;;;18.15;8.13;;;4.80;98.60;;;;;;5019715;28;20022;-57
2023/03/04 12:44:30;;;;;;;17.48;8.43;;;4.70;98.70;;;;;;5019551;28;20113;-57
2023/03/04 12:46:55;;;;;;;9.30;5.45;;;4.60;99.10;;;;;;5015926;28;20025;-58